Time;durP1;ratioP1;P1;durP2;ratioP2;P2;SDS_P1;SDS_P2;PMS_P1;PMS_P2;Temp;Humidity;BMP_temperature;BMP_pressure;BME280_temperature;BME280_humidity;BME280_pressure;Samples;Min_cycle;Max_cycle;Signal;HPM_P1;HPM_P2
2022/02/05 00:02:24;;;;;;;;;;;-3.30;99.90;;;;;;4175165;28;19943;-54
2022/02/05 00:04:25;;;;;;;;;;;-3.30;99.90;;;;;;4173631;28;19913;-51
2022/02/05 00:06:32;;;;;;;;;;;-3.40;99.90;;;;;;4175400;28;19982;-58
2022/02/05 00:13:38;;;;;;;;;;;-3.40;99.90;;;;;;4157329;28;20735;-57
2022/02/05 00:39:17;;;;;;;;;;;-3.70;99.90;;;;;;4173377;28;19963;-57
2022/02/05 00:42:43;;;;;;;;;;;-3.70;99.90;;;;;;4144201;28;20397;-51
2022/02/05 00:44:44;;;;;;;;;;;-3.70;99.90;;;;;;4158366;28;19925;-56
2022/02/05 00:46:48;;;;;;;;;;;-3.80;99.90;;;;;;4156269;28;19964;-54
2022/02/05 00:48:49;;;;;;;;;;;-3.80;99.90;;;;;;4158393;28;19913;-57
2022/02/05 00:51:11;;;;;;;;;;;-3.80;99.90;;;;;;4156477;28;19975;-52
2022/02/05 00:53:22;;;;;;;;;;;-3.80;99.90;;;;;;4158356;28;19917;-54
2022/02/05 00:55:27;;;;;;;;;;;-3.90;99.90;;;;;;4156179;28;19959;-53
2022/02/05 00:59:30;;;;;;;;;;;-3.90;99.90;;;;;;4172343;28;19913;-55
2022/02/05 01:01:31;;;;;;;;;;;-3.90;99.90;;;;;;4172887;28;19958;-53
2022/02/05 01:03:33;;;;;;;;;;;-3.90;99.90;;;;;;4161372;28;20282;-56
2022/02/05 01:05:35;;;;;;;;;;;-3.90;99.90;;;;;;4173175;28;19985;-54
2022/02/05 01:07:36;;;;;;;;;;;-3.90;99.90;;;;;;4172642;28;19917;-54
2022/02/05 01:09:39;;;;;;;;;;;-3.80;99.90;;;;;;4173349;28;19917;-53
2022/02/05 01:11:40;;;;;;;;;;;-3.80;99.90;;;;;;4173488;28;20446;-55
2022/02/05 01:13:41;;;;;;;;;;;-3.80;99.90;;;;;;4172706;28;19913;-54
2022/02/05 01:15:51;;;;;;;;;;;-3.80;99.90;;;;;;4173647;28;19998;-57
2022/02/05 01:17:58;;;;;;;;;;;-3.80;99.90;;;;;;4156942;28;19940;-54
2022/02/05 01:22:05;;;;;;;;;;;-3.80;99.90;;;;;;4156219;28;19963;-52
2022/02/05 01:24:10;;;;;;;;;;;-3.80;99.90;;;;;;4158014;28;19913;-54
2022/02/05 01:28:27;;;;;;;;;;;-3.80;99.90;;;;;;4159882;28;19921;-55
2022/02/05 01:30:33;;;;;;;;;;;-3.90;99.90;;;;;;4156045;28;19959;-49
2022/02/05 01:32:38;;;;;;;;;;;-3.90;99.90;;;;;;4161992;28;19962;-50
2022/02/05 01:39:31;;;;;;;;;;;-3.90;99.90;;;;;;4157774;28;19920;-49
2022/02/05 01:53:24;;;;;;;;;;;-3.90;99.90;;;;;;4167489;28;19917;-56
2022/02/05 01:56:21;;;;;;;;;;;-3.90;99.90;;;;;;4155863;28;19963;-52
2022/02/05 01:58:08;;;;;;;;;;;-3.80;99.90;;;;;;4160353;28;19917;-52
2022/02/05 02:11:28;;;;;;;;;;;-3.70;99.90;;;;;;4167433;28;19917;-56
2022/02/05 02:15:41;;;;;;;;;;;-3.80;99.90;;;;;;4175604;28;19959;-58
2022/02/05 02:21:56;;;;;;;;;;;-3.80;99.90;;;;;;4175142;28;20365;-55
2022/02/05 02:28:08;;;;;;;;;;;-3.70;99.90;;;;;;4160734;28;20003;-55
2022/02/05 02:32:18;;;;;;;;;;;-3.70;99.90;;;;;;4160361;28;19913;-53
2022/02/05 02:34:24;;;;;;;;;;;-3.70;99.90;;;;;;4159140;28;19987;-51
2022/02/05 02:38:45;;;;;;;;;;;-3.70;99.90;;;;;;4173372;28;19917;-54
2022/02/05 02:41:15;;;;;;;;;;;-3.70;99.90;;;;;;4175697;28;20415;-52
2022/02/05 02:43:16;;;;;;;;;;;-3.70;99.90;;;;;;4174727;28;19913;-54
2022/02/05 02:45:17;;;;;;;;;;;-3.80;99.90;;;;;;4176201;28;19917;-54
2022/02/05 02:47:18;;;;;;;;;;;-3.80;99.90;;;;;;4169903;28;20392;-55
2022/02/05 02:49:35;;;;;;;;;;;-3.80;99.90;;;;;;4158724;28;20340;-55
2022/02/05 02:58:34;;;;;;;;;;;-3.70;99.90;;;;;;4176937;28;19917;-54
2022/02/05 03:00:35;;;;;;;;;;;-3.70;99.90;;;;;;4174785;28;19939;-56
2022/02/05 03:02:36;;;;;;;;;;;-3.70;99.90;;;;;;4175876;28;20027;-54
2022/02/05 03:04:37;;;;;;;;;;;-3.70;99.90;;;;;;4174142;28;20364;-58
2022/02/05 03:06:38;;;;;;;;;;;-3.60;99.90;;;;;;4175481;28;19921;-58
2022/02/05 03:08:39;;;;;;;;;;;-3.60;99.90;;;;;;4174840;28;20712;-59
2022/02/05 03:10:40;;;;;;;;;;;-3.60;99.90;;;;;;4174369;28;19909;-49
2022/02/05 03:12:43;;;;;;;;;;;-3.60;99.90;;;;;;4175603;28;19935;-57
2022/02/05 03:14:44;;;;;;;;;;;-3.70;99.90;;;;;;4174648;28;19920;-57
2022/02/05 03:16:49;;;;;;;;;;;-3.80;99.90;;;;;;4172301;28;20020;-52
2022/02/05 03:20:57;;;;;;;;;;;-3.90;99.90;;;;;;4160791;28;19921;-50
2022/02/05 03:23:00;;;;;;;;;;;-3.90;99.90;;;;;;4157838;28;19920;-56
2022/02/05 03:25:01;;;;;;;;;;;-3.90;99.90;;;;;;4159099;28;19967;-58
2022/02/05 03:27:03;;;;;;;;;;;-3.80;99.90;;;;;;4156825;28;20388;-54
2022/02/05 03:29:09;;;;;;;;;;;-3.80;99.90;;;;;;4159877;28;19917;-52
2022/02/05 03:31:10;;;;;;;;;;;-3.80;99.90;;;;;;4157329;28;19918;-60
2022/02/05 03:33:11;;;;;;;;;;;-3.80;99.90;;;;;;4159409;28;19948;-53
2022/02/05 03:35:12;;;;;;;;;;;-3.70;99.90;;;;;;4157516;28;19917;-56
2022/02/05 03:37:13;;;;;;;;;;;-3.70;99.90;;;;;;4163854;28;19917;-51
2022/02/05 03:39:14;;;;;;;;;;;-3.70;99.90;;;;;;4173467;28;19912;-49
2022/02/05 03:41:15;;;;;;;;;;;-3.70;99.90;;;;;;4162316;28;19913;-56
2022/02/05 03:43:17;;;;;;;;;;;-3.60;99.90;;;;;;4158490;28;20390;-54
2022/02/05 03:45:18;;;;;;;;;;;-3.60;99.90;;;;;;4158368;28;20296;-53
2022/02/05 03:47:19;;;;;;;;;;;-3.50;99.90;;;;;;4158596;28;19936;-55
2022/02/05 03:49:21;;;;;;;;;;;-3.40;99.90;;;;;;4157923;28;19971;-53
2022/02/05 03:51:22;;;;;;;;;;;-3.30;99.90;;;;;;4159550;28;19925;-57
2022/02/05 03:53:23;;;;;;;;;;;-3.20;99.90;;;;;;4157534;28;20829;-55
2022/02/05 03:55:24;;;;;;;;;;;-3.20;99.90;;;;;;4166779;28;20360;-52
2022/02/05 03:57:25;;;;;;;;;;;-3.20;99.90;;;;;;4173908;28;20357;-50
2022/02/05 03:59:26;;;;;;;;;;;-3.20;99.90;;;;;;4159633;28;19917;-54
2022/02/05 04:01:27;;;;;;;;;;;-3.20;99.90;;;;;;4157490;28;19913;-54
2022/02/05 04:03:28;;;;;;;;;;;-3.20;99.90;;;;;;4159069;28;20024;-52
2022/02/05 04:05:29;;;;;;;;;;;-3.20;99.90;;;;;;4167464;28;19970;-49
2022/02/05 04:07:34;;;;;;;;;;;-3.20;99.90;;;;;;4173195;28;19963;-54
2022/02/05 04:09:41;;;;;;;;;;;-3.30;99.90;;;;;;4156490;28;20058;-53
2022/02/05 04:16:40;;;;;;;;;;;-3.20;99.90;;;;;;4140075;28;19964;-51
2022/02/05 04:18:41;;;;;;;;;;;-3.20;99.90;;;;;;4139489;28;20409;-54
2022/02/05 04:20:42;;;;;;;;;;;-3.20;99.90;;;;;;4158593;28;19975;-51
2022/02/05 04:22:43;;;;;;;;;;;-3.10;99.90;;;;;;4161820;28;19917;-53
2022/02/05 04:24:44;;;;;;;;;;;-3.10;99.90;;;;;;4174189;28;19912;-54
2022/02/05 04:26:46;;;;;;;;;;;-3.00;99.90;;;;;;4156980;28;19920;-52
2022/02/05 04:28:47;;;;;;;;;;;-3.00;99.90;;;;;;4158510;28;19959;-52
2022/02/05 04:30:48;;;;;;;;;;;-3.00;99.90;;;;;;4169610;28;19940;-48
2022/02/05 04:32:49;;;;;;;;;;;-2.90;99.90;;;;;;4173534;28;19919;-55
2022/02/05 04:34:50;;;;;;;;;;;-2.90;99.90;;;;;;4174760;28;19966;-52
2022/02/05 04:36:51;;;;;;;;;;;-2.90;99.90;;;;;;4173553;28;19916;-54
2022/02/05 04:38:53;;;;;;;;;;;-2.80;99.90;;;;;;4174204;28;19913;-52
2022/02/05 04:40:59;;;;;;;;;;;-2.80;99.90;;;;;;4173069;28;19939;-56
2022/02/05 04:45:29;;;;;;;;;;;-2.80;99.90;;;;;;4156524;28;19915;-51
2022/02/05 05:00:46;;;;;;;;;;;-2.60;99.90;;;;;;4171810;28;19963;-54
2022/02/05 05:03:08;;;;;;;;;;;-2.60;99.90;;;;;;4156261;28;19913;-50
2022/02/05 05:09:28;;;;;;;;;;;-2.60;99.90;;;;;;4157832;28;19974;-52
2022/02/05 05:20:25;;;;;;;;;;;-2.50;99.90;;;;;;4172939;28;19970;-54
2022/02/05 05:22:26;;;;;;;;;;;-2.50;99.90;;;;;;4172642;28;19920;-55
2022/02/05 05:24:27;;;;;;;;;;;-2.50;99.90;;;;;;4172436;28;19967;-60
2022/02/05 05:26:28;;;;;;;;;;;-2.60;99.90;;;;;;4159089;28;19921;-51
2022/02/05 05:28:29;;;;;;;;;;;-2.60;99.90;;;;;;4156269;28;19920;-57
2022/02/05 05:30:30;;;;;;;;;;;-2.60;99.90;;;;;;4157787;28;19913;-54
2022/02/05 05:32:31;;;;;;;;;;;-2.70;99.90;;;;;;4155367;28;19909;-48
2022/02/05 05:34:32;;;;;;;;;;;-2.70;99.90;;;;;;4157977;28;19913;-52
2022/02/05 05:36:33;;;;;;;;;;;-2.70;99.90;;;;;;4164582;28;19939;-50
2022/02/05 05:38:34;;;;;;;;;;;-2.70;99.90;;;;;;4173562;28;20456;-52
2022/02/05 05:40:40;;;;;;;;;;;-2.80;99.90;;;;;;4171846;28;19916;-51
2022/02/05 05:42:46;;;;;;;;;;;-2.80;99.90;;;;;;4173648;28;19913;-48
2022/02/05 05:45:22;;;;;;;;;;;-2.80;99.90;;;;;;4155430;28;19917;-52
2022/02/05 05:49:56;;;;;;;;;;;-2.90;99.90;;;;;;4155495;28;19913;-51
2022/02/05 05:51:56;;;;;;;;;;;-3.00;99.90;;;;;;4157099;28;19944;-55
2022/02/05 05:53:57;;;;;;;;;;;-3.00;99.90;;;;;;4155601;28;19916;-56
2022/02/05 05:55:58;;;;;;;;;;;-3.00;99.90;;;;;;4172184;28;20695;-54
2022/02/05 05:58:00;;;;;;;;;;;-2.90;99.90;;;;;;4160476;28;20026;-53
2022/02/05 06:00:01;;;;;;;;;;;-2.90;99.90;;;;;;4173976;28;19917;-60
2022/02/05 06:02:02;;;;;;;;;;;-2.90;99.90;;;;;;4171963;28;19917;-53
2022/02/05 06:04:03;;;;;;;;;;;-2.90;99.90;;;;;;4159065;28;19972;-57
2022/02/05 06:06:04;;;;;;;;;;;-2.90;99.90;;;;;;4155912;28;19917;-57
2022/02/05 06:08:05;;;;;;;;;;;-2.80;99.90;;;;;;4156018;28;20361;-56
2022/02/05 06:10:06;;;;;;;;;;;-2.80;99.90;;;;;;4156638;28;20357;-53
2022/02/05 06:12:08;;;;;;;;;;;-2.70;99.90;;;;;;4155411;28;19963;-57
2022/02/05 06:14:09;;;;;;;;;;;-2.60;99.90;;;;;;4173153;28;19912;-55
2022/02/05 06:16:15;;;;;;;;;;;-2.60;99.90;;;;;;4172169;28;19974;-55
2022/02/05 06:18:15;;;;;;;;;;;-2.60;99.90;;;;;;4173248;28;19930;-56
2022/02/05 06:20:16;;;;;;;;;;;-2.50;99.90;;;;;;4159682;28;20385;-58
2022/02/05 06:22:18;;;;;;;;;;;-2.50;99.90;;;;;;4156987;28;20335;-57
2022/02/05 06:24:19;;;;;;;;;;;-2.40;99.90;;;;;;4155568;28;19938;-54
2022/02/05 06:26:20;;;;;;;;;;;-2.40;99.90;;;;;;4157010;28;19940;-57
2022/02/05 06:28:21;;;;;;;;;;;-2.40;99.90;;;;;;4154502;28;20514;-54
2022/02/05 06:30:22;;;;;;;;;;;-2.40;99.90;;;;;;4157115;28;19913;-53
2022/02/05 06:32:23;;;;;;;;;;;-2.40;99.90;;;;;;4154464;28;19959;-55
2022/02/05 06:34:24;;;;;;;;;;;-2.30;99.90;;;;;;4156586;28;19967;-55
2022/02/05 06:36:24;;;;;;;;;;;-2.30;99.90;;;;;;4155629;28;20230;-51
2022/02/05 06:38:25;;;;;;;;;;;-2.40;99.90;;;;;;4166539;28;20054;-53
2022/02/05 06:40:27;;;;;;;;;;;-2.40;99.90;;;;;;4172670;28;20007;-53
2022/02/05 06:42:27;;;;;;;;;;;-2.40;99.90;;;;;;4171799;28;20405;-58
2022/02/05 06:44:28;;;;;;;;;;;-2.50;99.90;;;;;;4172836;28;19958;-53
2022/02/05 06:46:29;;;;;;;;;;;-2.50;99.90;;;;;;4171142;28;19921;-50
2022/02/05 06:48:30;;;;;;;;;;;-2.50;99.90;;;;;;4173425;28;20371;-53
2022/02/05 06:50:31;;;;;;;;;;;-2.50;99.90;;;;;;4171322;28;19959;-59
2022/02/05 06:52:32;;;;;;;;;;;-2.50;99.90;;;;;;4165828;28;19917;-55
2022/02/05 06:54:33;;;;;;;;;;;-2.50;99.90;;;;;;4155486;28;19921;-59
2022/02/05 06:56:34;;;;;;;;;;;-2.50;99.90;;;;;;4156613;28;19917;-56
2022/02/05 06:58:35;;;;;;;;;;;-2.50;99.90;;;;;;4156176;28;19913;-58
2022/02/05 07:00:36;;;;;;;;;;;-2.50;99.90;;;;;;4172401;28;20016;-55
2022/02/05 07:02:41;;;;;;;;;;;-2.50;99.90;;;;;;4172879;28;19966;-52
2022/02/05 07:04:42;;;;;;;;;;;-2.50;99.90;;;;;;4170748;28;19917;-51
2022/02/05 07:06:45;;;;;;;;;;;-2.50;99.90;;;;;;4158296;28;19925;-58
2022/02/05 07:08:45;;;;;;;;;;;-2.50;99.90;;;;;;4171807;28;19917;-54
2022/02/05 07:10:48;;;;;;;;;;;-2.50;99.90;;;;;;4174983;28;19970;-48
2022/02/05 07:17:09;;;;;;;;;;;-2.40;99.90;;;;;;4157384;28;20361;-58
2022/02/05 07:21:28;;;;;;;;;;;-2.40;99.90;;;;;;4157092;28;19913;-58
2022/02/05 07:30:11;;;;;;;;;;;-2.50;99.90;;;;;;4157548;28;20783;-57
2022/02/05 07:32:13;;;;;;;;;;;-2.40;99.90;;;;;;4158373;28;19967;-59
2022/02/05 07:34:15;;;;;;;;;;;-2.40;99.90;;;;;;4157020;28;20002;-57
2022/02/05 07:36:17;;;;;;;;;;;-2.40;99.90;;;;;;4158881;28;20561;-59
2022/02/05 07:38:18;;;;;;;;;;;-2.40;99.90;;;;;;4172018;28;19913;-62
2022/02/05 07:40:19;;;;;;;;;;;-2.40;99.90;;;;;;4168977;28;19963;-63
2022/02/05 07:42:20;;;;;;;;;;;-2.40;99.90;;;;;;4156409;28;19959;-58
2022/02/05 07:44:21;;;;;;;;;;;-2.30;99.90;;;;;;4159028;28;19920;-62
2022/02/05 07:46:23;;;;;;;;;;;-2.30;99.90;;;;;;4157429;28;19938;-60
2022/02/05 07:48:24;;;;;;;;;;;-2.20;99.90;;;;;;4168010;28;19921;-54
2022/02/05 07:50:25;;;;;;;;;;;-2.20;99.90;;;;;;4159733;28;19921;-55
2022/02/05 07:52:26;;;;;;;;;;;-2.10;99.90;;;;;;4158605;28;19963;-57
2022/02/05 07:54:27;;;;;;;;;;;-2.10;99.90;;;;;;4160430;28;20335;-59
2022/02/05 07:56:28;;;;;;;;;;;-2.10;99.90;;;;;;4157682;28;19917;-55
2022/02/05 07:58:29;;;;;;;;;;;-2.10;99.90;;;;;;4158142;28;19909;-51
2022/02/05 08:00:29;;;;;;;;;;;-2.00;99.90;;;;;;4157111;28;19923;-59
2022/02/05 08:02:30;;;;;;;;;;;-2.00;99.90;;;;;;4139925;28;19909;-53
2022/02/05 08:04:32;;;;;;;;;;;-1.80;99.90;;;;;;4157021;28;20352;-56
2022/02/05 08:06:35;;;;;;;;;;;-1.90;99.90;;;;;;4158449;28;19982;-58
2022/02/05 08:08:36;;;;;;;;;;;-1.90;99.90;;;;;;4156676;28;19917;-52
2022/02/05 08:10:46;;;;;;;;;;;-1.90;99.90;;;;;;4157887;28;20401;-58
2022/02/05 08:12:53;;;;;;;;;;;-1.90;99.90;;;;;;4156037;28;19970;-59
2022/02/05 08:14:56;;;;;;;;;;;-1.90;99.90;;;;;;4157044;28;19913;-54
2022/02/05 08:17:02;;;;;;;;;;;-1.90;99.90;;;;;;4156480;28;20357;-56
2022/02/05 08:19:03;;;;;;;;;;;-1.90;99.90;;;;;;4158144;28;19975;-57
2022/02/05 08:21:04;;;;;;;;;;;-1.90;99.90;;;;;;4161788;28;19935;-54
2022/02/05 08:23:05;;;;;;;;;;;-2.00;99.90;;;;;;4174525;28;20388;-52
2022/02/05 08:25:06;;;;;;;;;;;-2.00;99.90;;;;;;4169427;28;20024;-53
2022/02/05 08:27:07;;;;;;;;;;;-1.90;99.90;;;;;;4157684;28;19975;-59
2022/02/05 08:29:10;;;;;;;;;;;-2.00;99.90;;;;;;4156908;28;19913;-58
2022/02/05 08:31:11;;;;;;;;;;;-2.00;99.90;;;;;;4157359;28;19964;-60
2022/02/05 08:33:12;;;;;;;;;;;-2.00;99.90;;;;;;4156424;28;19967;-55
2022/02/05 08:35:13;;;;;;;;;;;-2.00;99.90;;;;;;4157813;28;19913;-58
2022/02/05 08:37:14;;;;;;;;;;;-1.90;99.90;;;;;;4157272;28;19920;-59
2022/02/05 08:39:17;;;;;;;;;;;-1.90;99.90;;;;;;4156572;28;19924;-57
2022/02/05 08:41:18;;;;;;;;;;;-1.90;99.90;;;;;;4157351;28;19917;-60
2022/02/05 08:43:19;;;;;;;;;;;-1.90;99.90;;;;;;4156068;28;19953;-53
2022/02/05 08:45:20;;;;;;;;;;;-1.90;99.90;;;;;;4161819;28;19913;-56
2022/02/05 08:47:21;;;;;;;;;;;-1.80;99.90;;;;;;4156361;28;20325;-58
2022/02/05 08:49:22;;;;;;;;;;;-1.70;99.90;;;;;;4161642;28;20007;-58
2022/02/05 08:51:23;;;;;;;;;;;-1.60;99.90;;;;;;4157854;28;19917;-59
2022/02/05 08:53:24;;;;;;;;;;;-1.50;99.90;;;;;;4170506;28;19917;-60
2022/02/05 08:55:29;;;;;;;;;;;-1.40;99.90;;;;;;4156368;28;19909;-58
2022/02/05 08:57:30;;;;;;;;;;;-1.40;99.90;;;;;;4157760;28;19913;-61
2022/02/05 08:59:43;;;;;;;;;;;-1.30;99.90;;;;;;4156695;28;20751;-59
2022/02/05 09:01:51;;;;;;;;;;;-1.20;99.90;;;;;;4157265;28;20396;-57
2022/02/05 09:06:32;;;;;;;;;;;-1.10;99.90;;;;;;4123487;28;20016;-63
2022/02/05 09:08:47;;;;;;;;;;;-1.10;99.90;;;;;;4167652;28;19921;-61
2022/02/05 09:11:04;;;;;;;;;;;-1.00;99.90;;;;;;4174194;28;20330;-61
2022/02/05 09:13:14;;;;;;;;;;;-0.90;99.90;;;;;;4172361;28;19913;-60
2022/02/05 09:15:14;;;;;;;;;;;-0.80;99.90;;;;;;4174463;28;20238;-58
2022/02/05 09:17:15;;;;;;;;;;;-0.70;99.90;;;;;;4171934;28;19986;-58
2022/02/05 09:19:16;;;;;;;;;;;-0.60;99.90;;;;;;4173642;28;19967;-58
2022/02/05 09:21:18;;;;;;;;;;;-0.60;99.90;;;;;;4172016;28;19913;-58
2022/02/05 09:23:19;;;;;;;;;;;-0.40;99.90;;;;;;4146276;28;19917;-60
2022/02/05 09:25:23;;;;;;;;;;;-0.40;99.90;;;;;;4154385;28;19921;-53
2022/02/05 09:27:27;;;;;;;;;;;-0.30;99.90;;;;;;4159685;28;20334;-56
2022/02/05 09:29:31;;;;;;;;;;;-0.20;99.90;;;;;;4158273;28;19921;-58
2022/02/05 09:31:35;;;;;;;;;;;-0.10;99.90;;;;;;4155591;28;20004;-59
2022/02/05 09:33:37;;;;;;;;;;;0.00;99.90;;;;;;4154871;28;19921;-56
2022/02/05 09:35:38;;;;;;;;;;;0.10;99.90;;;;;;4155757;28;20320;-59
2022/02/05 09:37:39;;;;;;;;;;;0.10;99.90;;;;;;4156502;28;20335;-55
2022/02/05 09:39:41;;;;;;;;;;;0.20;99.90;;;;;;4154583;28;19917;-53
2022/02/05 09:41:43;;;;;;;;;;;0.30;99.90;;;;;;4157085;28;19963;-60
2022/02/05 09:43:45;;;;;;;;;;;0.40;99.90;;;;;;4154928;28;19995;-63
2022/02/05 09:45:46;;;;;;;;;;;0.40;99.90;;;;;;4172608;28;20061;-64
2022/02/05 09:47:49;;;;;;;;;;;0.50;99.90;;;;;;4157852;28;19983;-56
2022/02/05 09:49:51;;;;;;;;;;;0.60;99.90;;;;;;4156073;28;19917;-57
2022/02/05 09:52:07;;;;;;;;;;;0.60;99.90;;;;;;4155681;28;19913;-58
2022/02/05 09:54:08;;;;;;;;;;;0.50;99.90;;;;;;4156355;28;19913;-56
2022/02/05 09:56:09;;;;;;;;;;;0.50;99.90;;;;;;4155432;28;19913;-58
2022/02/05 09:58:10;;;;;;;;;;;0.30;99.90;;;;;;4157092;28;20330;-56
2022/02/05 10:00:15;;;;;;;;;;;0.30;99.90;;;;;;4154961;28;19988;-57
2022/02/05 10:02:28;;;;;;;;;;;0.30;99.90;;;;;;4156471;28;19975;-57
2022/02/05 10:04:49;;;;;;;;;;;0.30;99.90;;;;;;4154817;28;20614;-57
2022/02/05 10:06:51;;;;;;;;;;;0.20;99.90;;;;;;4140902;28;19925;-57
2022/02/05 10:08:58;;;;;;;;;;;0.30;99.90;;;;;;4155107;28;20356;-58
2022/02/05 10:10:59;;;;;;;;;;;0.30;99.90;;;;;;4159661;28;20444;-57
2022/02/05 10:13:07;;;;;;;;;;;0.30;99.90;;;;;;4168211;28;19947;-58
2022/02/05 10:15:09;;;;;;;;;;;0.30;99.90;;;;;;4170767;28;19966;-56
2022/02/05 10:17:09;;;;;;;;;;;0.30;99.90;;;;;;4168230;28;20772;-57
2022/02/05 10:19:12;;;;;;;;;;;0.50;99.90;;;;;;4161458;28;19917;-59
2022/02/05 10:21:21;;;;;;;;;;;0.70;99.90;;;;;;4172018;28;19904;-58
2022/02/05 10:23:23;;;;;;;;;;;0.90;99.90;;;;;;4171400;28;19987;-55
2022/02/05 10:25:24;;;;;;;;;;;1.10;99.90;;;;;;4157726;28;19921;-53
2022/02/05 10:27:28;;;;;;;;;;;1.20;99.90;;;;;;4153336;28;19951;-63
2022/02/05 10:29:31;;;;;;;;;;;1.30;99.90;;;;;;4158460;28;19917;-57
2022/02/05 10:31:51;;;;;;;;;;;1.20;99.90;;;;;;4160747;28;20482;-56
2022/02/05 10:34:02;;;;;;;;;;;1.30;99.90;;;;;;4146223;28;20060;-51
2022/02/05 10:40:20;;;;;;;;;;;1.30;99.90;;;;;;4157837;28;19917;-53
2022/02/05 10:44:40;;;;;;;;;;;1.40;99.90;;;;;;4159773;28;19960;-50
2022/02/05 10:46:44;;;;;;;;;;;1.50;99.90;;;;;;4174902;28;19912;-52
2022/02/05 10:48:45;;;;;;;;;;;1.50;99.90;;;;;;4173725;28;19924;-55
2022/02/05 10:50:47;;;;;;;;;;;1.50;99.90;;;;;;4175318;28;19959;-52
2022/02/05 10:52:50;;;;;;;;;;;1.50;99.90;;;;;;4165183;28;20335;-54
2022/02/05 10:55:02;;;;;;;;;;;1.50;99.90;;;;;;4159823;28;19967;-54
2022/02/05 10:57:20;;;;;;;;;;;1.50;99.90;;;;;;4158706;28;19929;-58
2022/02/05 10:59:39;;;;;;;;;;;1.60;99.90;;;;;;4158924;28;20292;-59
2022/02/05 11:06:32;;;;;;;;;;;1.60;99.90;;;;;;4158061;28;19963;-54
2022/02/05 11:08:33;;;;;;;;;;;1.60;99.90;;;;;;4158507;28;20735;-56
2022/02/05 11:13:14;;;;;;;;;;;1.60;99.90;;;;;;4157751;28;19917;-58
2022/02/05 11:19:48;;;;;;;;;;;1.90;99.90;;;;;;4155574;28;19913;-56
2022/02/05 11:21:49;;;;;;;;;;;2.10;99.90;;;;;;4158561;28;19914;-57
2022/02/05 11:23:51;;;;;;;;;;;2.10;99.90;;;;;;4157212;28;19975;-58
2022/02/05 11:25:53;;;;;;;;;;;2.20;99.90;;;;;;4154447;28;19960;-56
2022/02/05 11:27:55;;;;;;;;;;;2.30;99.90;;;;;;4140744;28;20423;-57
2022/02/05 11:29:56;;;;;;;;;;;2.30;99.90;;;;;;4141920;28;20346;-55
2022/02/05 11:32:18;;;;;;;;;;;2.40;99.90;;;;;;4139565;28;19920;-54
2022/02/05 11:34:29;;;;;;;;;;;2.50;99.90;;;;;;4141470;28;19914;-55
2022/02/05 11:36:47;;;;;;;;;;;2.60;99.90;;;;;;4140433;28;19921;-53
2022/02/05 11:39:00;;;;;;;;;;;2.70;99.90;;;;;;4159152;28;19921;-57
2022/02/05 11:41:03;;;;;;;;;;;2.70;99.90;;;;;;4156999;28;19921;-59
2022/02/05 11:43:22;;;;;;;;;;;2.80;99.90;;;;;;4158596;28;19991;-58
2022/02/05 11:45:26;;;;;;;;;;;2.80;99.90;;;;;;4157459;28;19913;-57
2022/02/05 11:47:28;;;;;;;;;;;2.90;99.90;;;;;;4157504;28;19987;-59
2022/02/05 11:49:49;;;;;;;;;;;2.90;99.90;;;;;;4157103;28;19971;-58
2022/02/05 11:51:50;;;;;;;;;;;2.90;99.90;;;;;;4162020;28;20427;-56
2022/02/05 11:54:05;;;;;;;;;;;2.90;99.90;;;;;;4156765;28;19913;-56
2022/02/05 11:56:15;;;;;;;;;;;2.90;99.90;;;;;;4157578;28;19991;-57
2022/02/05 11:58:17;;;;;;;;;;;2.90;99.90;;;;;;4157144;28;19913;-59
2022/02/05 12:00:20;;;;;;;;;;;3.00;99.90;;;;;;4159829;28;19913;-56
2022/02/05 12:02:22;;;;;;;;;;;3.10;99.90;;;;;;4155620;28;20126;-58
2022/02/05 12:04:29;;;;;;;;;;;3.30;99.90;;;;;;4157608;28;19921;-53
2022/02/05 12:06:44;;;;;;;;;;;3.40;99.90;;;;;;4157111;28;19919;-59
2022/02/05 12:08:45;;;;;;;;;;;3.40;99.90;;;;;;4174388;28;19925;-57
2022/02/05 12:10:48;;;;;;;;;;;3.30;99.90;;;;;;4156620;28;20015;-58
2022/02/05 12:12:51;;;;;;;;;;;3.30;99.90;;;;;;4157566;28;19921;-57
2022/02/05 12:15:10;;;;;;;;;;;3.20;99.90;;;;;;4172814;28;19913;-61
2022/02/05 12:17:17;;;;;;;;;;;3.20;99.90;;;;;;4174387;28;19982;-58
2022/02/05 12:19:27;;;;;;;;;;;3.20;99.90;;;;;;4170133;28;19982;-53
2022/02/05 12:21:48;;;;;;;;;;;3.20;99.90;;;;;;4141850;28;20320;-58
2022/02/05 12:25:59;;;;;;;;;;;3.30;99.90;;;;;;4149387;28;19956;-58
2022/02/05 12:28:20;;;;;;;;;;;3.40;99.90;;;;;;4152974;28;19959;-64
2022/02/05 12:30:27;;;;;;;;;;;3.40;99.90;;;;;;4157911;28;19909;-56
2022/02/05 12:32:28;;;;;;;;;;;3.40;99.90;;;;;;4157332;28;20459;-61
2022/02/05 12:34:32;;;;;;;;;;;3.50;99.90;;;;;;4157574;28;20036;-61
2022/02/05 12:36:40;;;;;;;;;;;3.50;99.90;;;;;;4156454;28;20057;-60
2022/02/05 12:38:42;;;;;;;;;;;3.40;99.90;;;;;;4157223;28;19967;-61
2022/02/05 12:40:44;;;;;;;;;;;3.30;99.90;;;;;;4156402;28;19917;-57
2022/02/05 12:42:54;;;;;;;;;;;3.30;99.90;;;;;;4158270;28;19921;-57
2022/02/05 12:44:55;;;;;;;;;;;3.30;99.90;;;;;;4155568;28;19921;-56
2022/02/05 12:47:11;;;;;;;;;;;3.40;99.90;;;;;;4160949;28;19913;-59
2022/02/05 12:49:58;;;;;;;;;;;3.40;99.90;;;;;;4155660;28;19925;-57
2022/02/05 12:51:40;;;;;;;;;;;3.50;99.90;;;;;;4152717;28;19917;-58
2022/02/05 12:53:43;;;;;;;;;;;3.60;99.90;;;;;;4155812;28;20410;-60
2022/02/05 12:55:46;;;;;;;;;;;3.60;99.90;;;;;;4157950;28;19913;-58
2022/02/05 12:57:47;;;;;;;;;;;3.60;99.90;;;;;;4156241;28;20273;-58
2022/02/05 12:59:48;;;;;;;;;;;3.60;99.90;;;;;;4140667;28;19972;-60
2022/02/05 13:02:08;;;;;;;;;;;3.60;99.90;;;;;;4170129;28;20358;-60
2022/02/05 13:04:13;;;;;;;;;;;3.60;99.90;;;;;;4174176;28;19924;-61
2022/02/05 13:06:17;;;;;;;;;;;3.50;99.90;;;;;;4162298;28;19963;-61
2022/02/05 13:08:19;;;;;;;;;;;3.50;99.90;;;;;;4157741;28;19975;-57
2022/02/05 13:10:21;;;;;;;;;;;3.50;99.90;;;;;;4156069;28;19913;-58
2022/02/05 13:12:37;;;;;;;;;;;3.50;99.90;;;;;;4157504;28;19913;-52
2022/02/05 13:14:39;;;;;;;;;;;3.50;99.90;;;;;;4158373;28;19913;-61
2022/02/05 13:16:41;;;;;;;;;;;3.50;99.90;;;;;;4156025;28;19922;-57
2022/02/05 13:18:54;;;;;;;;;;;3.50;99.90;;;;;;4155697;28;19961;-58
2022/02/05 13:27:47;;;;;;;;;;;3.20;99.90;;;;;;4155328;28;19975;-59
2022/02/05 13:33:32;;;;;;;;;;;3.10;99.90;;;;;;4157047;28;20365;-58
2022/02/05 13:34:30;;;;;;;;;;;3.00;99.90;;;;;;4156155;28;19967;-62
2022/02/05 13:40:39;;;;;;;;;;;2.90;99.90;;;;;;4155391;28;20436;-58
2022/02/05 13:42:43;;;;;;;;;;;3.00;99.90;;;;;;4156420;28;19909;-62
2022/02/05 13:44:52;;;;;;;;;;;2.90;99.90;;;;;;4143263;28;19960;-61
2022/02/05 13:47:19;;;;;;;;;;;3.00;99.90;;;;;;4173051;28;19917;-60
2022/02/05 13:49:20;;;;;;;;;;;3.00;99.90;;;;;;4168068;28;19920;-62
2022/02/05 13:51:20;;;;;;;;;;;3.00;99.90;;;;;;4170962;28;19967;-62
2022/02/05 13:53:21;;;;;;;;;;;3.00;99.90;;;;;;4156956;28;20277;-60
2022/02/05 13:55:25;;;;;;;;;;;3.00;99.90;;;;;;4172765;28;19978;-59
2022/02/05 13:57:26;;;;;;;;;;;3.00;99.90;;;;;;4159240;28;20726;-60
2022/02/05 13:59:28;;;;;;;;;;;3.10;99.90;;;;;;4169959;28;19917;-59
2022/02/05 14:01:33;;;;;;;;;;;3.10;99.90;;;;;;4170355;28;20451;-60
2022/02/05 14:03:35;;;;;;;;;;;3.10;99.90;;;;;;4155326;28;20362;-61
2022/02/05 14:05:41;;;;;;;;;;;3.20;99.90;;;;;;4156914;28;20323;-60
2022/02/05 14:07:42;;;;;;;;;;;3.30;99.90;;;;;;4150247;28;19917;-62
2022/02/05 14:09:43;;;;;;;;;;;3.40;99.90;;;;;;4155362;28;19999;-60
2022/02/05 14:11:45;;;;;;;;;;;3.50;99.90;;;;;;4168130;28;19986;-60
2022/02/05 14:13:54;;;;;;;;;;;3.70;99.90;;;;;;4163871;28;19917;-61
2022/02/05 14:15:57;;;;;;;;;;;3.90;99.90;;;;;;4158344;28;19917;-63
2022/02/05 14:18:11;;;;;;;;;;;4.10;99.90;;;;;;4159114;28;19929;-54
2022/02/05 14:20:13;;;;;;;;;;;4.20;99.90;;;;;;4157186;28;19959;-57
2022/02/05 14:22:17;;;;;;;;;;;4.30;99.90;;;;;;4159897;28;19971;-57
2022/02/05 14:24:23;;;;;;;;;;;4.40;99.90;;;;;;4157571;28;19979;-58
2022/02/05 14:26:30;;;;;;;;;;;4.50;99.90;;;;;;4171192;28;19958;-51
2022/02/05 14:28:48;;;;;;;;;;;4.50;99.90;;;;;;4173734;28;20357;-59
2022/02/05 14:31:29;;;;;;;;;;;4.50;99.90;;;;;;4159636;28;19916;-61
2022/02/05 14:33:17;;;;;;;;;;;4.40;99.90;;;;;;4153574;28;20006;-59
2022/02/05 14:42:19;;;;;;;;;;;4.40;99.90;;;;;;4166954;28;20330;-60
2022/02/05 14:44:20;;;;;;;;;;;4.40;99.90;;;;;;4176565;28;19912;-58
2022/02/05 14:46:21;;;;;;;;;;;4.50;99.90;;;;;;4160311;28;19917;-56
2022/02/05 14:48:23;;;;;;;;;;;4.60;99.90;;;;;;4159118;28;19917;-59
2022/02/05 14:50:24;;;;;;;;;;;4.70;99.90;;;;;;4158437;28;19959;-55
2022/02/05 14:52:25;;;;;;;;;;;4.80;99.90;;;;;;4159727;28;19913;-57
2022/02/05 14:54:26;;;;;;;;;;;4.90;99.90;;;;;;4157713;28;19913;-60
2022/02/05 14:56:27;;;;;;;;;;;5.10;99.90;;;;;;4158645;28;20391;-59
2022/02/05 14:58:28;;;;;;;;;;;5.30;99.90;;;;;;4157518;28;19913;-61
2022/02/05 15:00:29;;;;;;;;;;;5.40;99.90;;;;;;4166346;28;19927;-58
2022/02/05 15:02:30;;;;;;;;;;;5.50;99.90;;;;;;4174572;28;19913;-59
2022/02/05 15:04:31;;;;;;;;;;;5.60;99.90;;;;;;4162529;28;20830;-61
2022/02/05 15:06:35;;;;;;;;;;;5.60;99.90;;;;;;4157449;28;19921;-59
2022/02/05 15:08:36;;;;;;;;;;;5.70;99.90;;;;;;4150303;28;20395;-62